sensor_id;sensor_type;location;lat;lon;timestamp;P1;durP1;ratioP1;P2;durP2;ratioP2
9115;SDS011;4593;53.652;10.168;2023-12-07T00:00:49;45.00;;;14.87;;
9115;SDS011;4593;53.652;10.168;2023-12-07T00:03:15;36.63;;;14.40;;
9115;SDS011;4593;53.652;10.168;2023-12-07T00:05:40;55.37;;;17.90;;
9115;SDS011;4593;53.652;10.168;2023-12-07T00:08:09;47.50;;;18.33;;
9115;SDS011;4593;53.652;10.168;2023-12-07T00:10:35;50.47;;;15.90;;
9115;SDS011;4593;53.652;10.168;2023-12-07T00:13:01;50.20;;;19.77;;
9115;SDS011;4593;53.652;10.168;2023-12-07T00:15:27;34.70;;;12.17;;
9115;SDS011;4593;53.652;10.168;2023-12-07T00:17:53;45.60;;;18.07;;
9115;SDS011;4593;53.652;10.168;2023-12-07T00:20:18;44.73;;;14.50;;
9115;SDS011;4593;53.652;10.168;2023-12-07T00:22:44;45.93;;;18.63;;
9115;SDS011;4593;53.652;10.168;2023-12-07T00:25:10;50.33;;;18.83;;
9115;SDS011;4593;53.652;10.168;2023-12-07T00:27:36;35.67;;;13.87;;
9115;SDS011;4593;53.652;10.168;2023-12-07T00:30:02;35.50;;;16.07;;
9115;SDS011;4593;53.652;10.168;2023-12-07T00:32:28;41.93;;;14.40;;
9115;SDS011;4593;53.652;10.168;2023-12-07T00:34:54;35.17;;;15.30;;
9115;SDS011;4593;53.652;10.168;2023-12-07T00:37:20;36.73;;;13.97;;
9115;SDS011;4593;53.652;10.168;2023-12-07T00:39:46;42.23;;;16.37;;
9115;SDS011;4593;53.652;10.168;2023-12-07T00:42:11;41.77;;;15.83;;
9115;SDS011;4593;53.652;10.168;2023-12-07T00:44:41;37.17;;;14.43;;
9115;SDS011;4593;53.652;10.168;2023-12-07T00:47:07;43.23;;;14.33;;
9115;SDS011;4593;53.652;10.168;2023-12-07T00:49:33;39.87;;;13.97;;
9115;SDS011;4593;53.652;10.168;2023-12-07T00:51:58;37.37;;;13.23;;
9115;SDS011;4593;53.652;10.168;2023-12-07T00:54:24;39.03;;;16.93;;
9115;SDS011;4593;53.652;10.168;2023-12-07T00:56:50;51.53;;;18.60;;
9115;SDS011;4593;53.652;10.168;2023-12-07T00:59:16;57.13;;;18.70;;
9115;SDS011;4593;53.652;10.168;2023-12-07T01:01:42;45.00;;;16.90;;
9115;SDS011;4593;53.652;10.168;2023-12-07T01:04:07;39.47;;;16.17;;
9115;SDS011;4593;53.652;10.168;2023-12-07T01:06:33;45.13;;;15.43;;
9115;SDS011;4593;53.652;10.168;2023-12-07T01:08:58;46.10;;;15.87;;
9115;SDS011;4593;53.652;10.168;2023-12-07T01:11:24;47.90;;;18.53;;
9115;SDS011;4593;53.652;10.168;2023-12-07T01:13:50;40.23;;;16.43;;
9115;SDS011;4593;53.652;10.168;2023-12-07T01:16:16;36.77;;;14.40;;
9115;SDS011;4593;53.652;10.168;2023-12-07T01:18:41;41.13;;;16.60;;
9115;SDS011;4593;53.652;10.168;2023-12-07T01:21:07;30.67;;;13.77;;
9115;SDS011;4593;53.652;10.168;2023-12-07T01:23:32;45.67;;;16.77;;
9115;SDS011;4593;53.652;10.168;2023-12-07T01:25:58;57.60;;;18.87;;
9115;SDS011;4593;53.652;10.168;2023-12-07T01:28:27;66.93;;;20.23;;
9115;SDS011;4593;53.652;10.168;2023-12-07T01:30:53;52.63;;;17.43;;
9115;SDS011;4593;53.652;10.168;2023-12-07T01:33:18;38.27;;;16.93;;
9115;SDS011;4593;53.652;10.168;2023-12-07T01:35:44;40.83;;;17.40;;
9115;SDS011;4593;53.652;10.168;2023-12-07T01:38:10;40.63;;;14.23;;
9115;SDS011;4593;53.652;10.168;2023-12-07T01:40:36;39.67;;;13.90;;
9115;SDS011;4593;53.652;10.168;2023-12-07T01:43:01;34.00;;;14.73;;
9115;SDS011;4593;53.652;10.168;2023-12-07T01:45:27;43.50;;;15.70;;
9115;SDS011;4593;53.652;10.168;2023-12-07T01:47:52;37.27;;;15.47;;
9115;SDS011;4593;53.652;10.168;2023-12-07T01:50:21;35.47;;;16.23;;
9115;SDS011;4593;53.652;10.168;2023-12-07T01:52:48;44.57;;;16.77;;
9115;SDS011;4593;53.652;10.168;2023-12-07T01:55:17;44.80;;;18.70;;
9115;SDS011;4593;53.652;10.168;2023-12-07T01:57:44;41.57;;;18.73;;
9115;SDS011;4593;53.652;10.168;2023-12-07T02:00:11;39.40;;;16.10;;
9115;SDS011;4593;53.652;10.168;2023-12-07T02:02:38;31.97;;;13.27;;
9115;SDS011;4593;53.652;10.168;2023-12-07T02:05:04;45.47;;;14.97;;
9115;SDS011;4593;53.652;10.168;2023-12-07T02:07:30;41.60;;;16.70;;
9115;SDS011;4593;53.652;10.168;2023-12-07T02:09:57;49.97;;;19.20;;
9115;SDS011;4593;53.652;10.168;2023-12-07T02:12:23;47.90;;;17.30;;
9115;SDS011;4593;53.652;10.168;2023-12-07T02:14:50;37.83;;;12.97;;
9115;SDS011;4593;53.652;10.168;2023-12-07T02:17:24;38.33;;;16.17;;
9115;SDS011;4593;53.652;10.168;2023-12-07T02:22:49;35.27;;;14.97;;
9115;SDS011;4593;53.652;10.168;2023-12-07T02:25:20;41.57;;;15.27;;
9115;SDS011;4593;53.652;10.168;2023-12-07T02:27:49;45.97;;;17.27;;
9115;SDS011;4593;53.652;10.168;2023-12-07T02:30:15;42.90;;;15.23;;
9115;SDS011;4593;53.652;10.168;2023-12-07T02:32:41;44.73;;;18.40;;
9115;SDS011;4593;53.652;10.168;2023-12-07T02:35:10;33.37;;;13.63;;
9115;SDS011;4593;53.652;10.168;2023-12-07T02:37:43;47.53;;;16.63;;
9115;SDS011;4593;53.652;10.168;2023-12-07T02:40:10;47.93;;;15.60;;
9115;SDS011;4593;53.652;10.168;2023-12-07T02:42:39;43.47;;;17.10;;
9115;SDS011;4593;53.652;10.168;2023-12-07T02:45:08;46.60;;;19.17;;
9115;SDS011;4593;53.652;10.168;2023-12-07T02:47:34;34.10;;;15.10;;
9115;SDS011;4593;53.652;10.168;2023-12-07T02:50:00;35.20;;;15.30;;
9115;SDS011;4593;53.652;10.168;2023-12-07T02:52:26;35.33;;;14.97;;
9115;SDS011;4593;53.652;10.168;2023-12-07T02:54:52;43.60;;;16.83;;
9115;SDS011;4593;53.652;10.168;2023-12-07T02:57:17;44.33;;;18.00;;
9115;SDS011;4593;53.652;10.168;2023-12-07T02:59:43;32.53;;;14.47;;
9115;SDS011;4593;53.652;10.168;2023-12-07T03:02:08;42.20;;;16.47;;
9115;SDS011;4593;53.652;10.168;2023-12-07T03:04:34;41.10;;;14.43;;
9115;SDS011;4593;53.652;10.168;2023-12-07T03:07:00;34.13;;;15.07;;
9115;SDS011;4593;53.652;10.168;2023-12-07T03:09:25;52.27;;;16.33;;
9115;SDS011;4593;53.652;10.168;2023-12-07T03:11:51;40.90;;;15.10;;
9115;SDS011;4593;53.652;10.168;2023-12-07T03:14:16;41.77;;;13.23;;
9115;SDS011;4593;53.652;10.168;2023-12-07T03:16:44;39.87;;;15.03;;
9115;SDS011;4593;53.652;10.168;2023-12-07T03:19:10;43.43;;;15.97;;
9115;SDS011;4593;53.652;10.168;2023-12-07T03:21:39;37.07;;;15.10;;
9115;SDS011;4593;53.652;10.168;2023-12-07T03:24:06;35.03;;;14.20;;
9115;SDS011;4593;53.652;10.168;2023-12-07T03:26:33;35.07;;;15.33;;
9115;SDS011;4593;53.652;10.168;2023-12-07T03:28:59;43.77;;;15.10;;
9115;SDS011;4593;53.652;10.168;2023-12-07T03:31:25;34.80;;;17.23;;
9115;SDS011;4593;53.652;10.168;2023-12-07T03:33:50;42.00;;;15.83;;
9115;SDS011;4593;53.652;10.168;2023-12-07T03:36:16;32.03;;;15.03;;
9115;SDS011;4593;53.652;10.168;2023-12-07T03:38:42;46.70;;;17.00;;
9115;SDS011;4593;53.652;10.168;2023-12-07T03:41:07;44.03;;;17.10;;
9115;SDS011;4593;53.652;10.168;2023-12-07T03:43:33;37.50;;;14.87;;
9115;SDS011;4593;53.652;10.168;2023-12-07T03:45:59;41.60;;;13.83;;
9115;SDS011;4593;53.652;10.168;2023-12-07T03:48:28;42.53;;;15.37;;
9115;SDS011;4593;53.652;10.168;2023-12-07T03:50:54;39.73;;;15.20;;
9115;SDS011;4593;53.652;10.168;2023-12-07T03:53:19;39.73;;;15.63;;
9115;SDS011;4593;53.652;10.168;2023-12-07T03:55:45;31.87;;;14.17;;
9115;SDS011;4593;53.652;10.168;2023-12-07T03:58:10;47.13;;;16.00;;
9115;SDS011;4593;53.652;10.168;2023-12-07T04:00:38;42.87;;;14.73;;
9115;SDS011;4593;53.652;10.168;2023-12-07T04:03:04;46.77;;;17.50;;
9115;SDS011;4593;53.652;10.168;2023-12-07T04:05:30;42.07;;;15.70;;
9115;SDS011;4593;53.652;10.168;2023-12-07T04:07:56;44.57;;;17.77;;
9115;SDS011;4593;53.652;10.168;2023-12-07T04:10:21;37.00;;;15.10;;
9115;SDS011;4593;53.652;10.168;2023-12-07T04:12:47;37.00;;;17.23;;
9115;SDS011;4593;53.652;10.168;2023-12-07T04:15:13;44.67;;;17.03;;
9115;SDS011;4593;53.652;10.168;2023-12-07T04:17:38;35.67;;;12.97;;
9115;SDS011;4593;53.652;10.168;2023-12-07T04:20:04;49.43;;;17.57;;
9115;SDS011;4593;53.652;10.168;2023-12-07T04:22:31;38.20;;;14.63;;
9115;SDS011;4593;53.652;10.168;2023-12-07T04:24:56;40.10;;;15.33;;
9115;SDS011;4593;53.652;10.168;2023-12-07T04:27:22;32.63;;;14.83;;
9115;SDS011;4593;53.652;10.168;2023-12-07T04:29:48;47.00;;;17.33;;
9115;SDS011;4593;53.652;10.168;2023-12-07T04:32:13;43.47;;;14.60;;
9115;SDS011;4593;53.652;10.168;2023-12-07T04:34:39;32.30;;;13.23;;
9115;SDS011;4593;53.652;10.168;2023-12-07T04:37:04;33.17;;;15.07;;
9115;SDS011;4593;53.652;10.168;2023-12-07T04:39:30;39.80;;;15.47;;
9115;SDS011;4593;53.652;10.168;2023-12-07T04:41:55;38.03;;;13.63;;
9115;SDS011;4593;53.652;10.168;2023-12-07T04:44:21;47.23;;;16.17;;
9115;SDS011;4593;53.652;10.168;2023-12-07T04:46:47;33.77;;;14.87;;
9115;SDS011;4593;53.652;10.168;2023-12-07T04:49:12;28.77;;;13.83;;
9115;SDS011;4593;53.652;10.168;2023-12-07T04:51:38;25.80;;;14.57;;
9115;SDS011;4593;53.652;10.168;2023-12-07T04:54:03;46.07;;;13.77;;
9115;SDS011;4593;53.652;10.168;2023-12-07T04:56:29;34.73;;;13.90;;
9115;SDS011;4593;53.652;10.168;2023-12-07T04:58:55;32.80;;;12.50;;
9115;SDS011;4593;53.652;10.168;2023-12-07T05:01:20;23.13;;;13.07;;
9115;SDS011;4593;53.652;10.168;2023-12-07T05:03:46;28.30;;;13.90;;
9115;SDS011;4593;53.652;10.168;2023-12-07T05:06:12;41.17;;;13.27;;
9115;SDS011;4593;53.652;10.168;2023-12-07T05:08:38;32.83;;;13.77;;
9115;SDS011;4593;53.652;10.168;2023-12-07T05:11:04;39.63;;;14.20;;
9115;SDS011;4593;53.652;10.168;2023-12-07T05:13:31;42.93;;;14.40;;
9115;SDS011;4593;53.652;10.168;2023-12-07T05:15:58;35.57;;;14.00;;
9115;SDS011;4593;53.652;10.168;2023-12-07T05:18:24;48.53;;;17.23;;
9115;SDS011;4593;53.652;10.168;2023-12-07T05:20:50;39.27;;;15.90;;
9115;SDS011;4593;53.652;10.168;2023-12-07T05:23:16;40.17;;;15.27;;
9115;SDS011;4593;53.652;10.168;2023-12-07T05:25:42;28.90;;;14.33;;
9115;SDS011;4593;53.652;10.168;2023-12-07T05:28:08;33.10;;;16.37;;
9115;SDS011;4593;53.652;10.168;2023-12-07T05:30:35;37.47;;;17.67;;
9115;SDS011;4593;53.652;10.168;2023-12-07T05:33:02;39.77;;;15.43;;
9115;SDS011;4593;53.652;10.168;2023-12-07T05:35:28;42.57;;;14.00;;
9115;SDS011;4593;53.652;10.168;2023-12-07T05:37:54;32.60;;;14.43;;
9115;SDS011;4593;53.652;10.168;2023-12-07T05:40:19;46.97;;;18.17;;
9115;SDS011;4593;53.652;10.168;2023-12-07T05:42:47;45.30;;;17.07;;
9115;SDS011;4593;53.652;10.168;2023-12-07T05:45:14;40.50;;;17.83;;
9115;SDS011;4593;53.652;10.168;2023-12-07T05:47:41;40.07;;;14.73;;
9115;SDS011;4593;53.652;10.168;2023-12-07T05:50:06;36.37;;;14.07;;
9115;SDS011;4593;53.652;10.168;2023-12-07T05:52:33;40.43;;;13.70;;
9115;SDS011;4593;53.652;10.168;2023-12-07T05:54:59;41.60;;;17.27;;
9115;SDS011;4593;53.652;10.168;2023-12-07T05:57:24;36.23;;;14.67;;
9115;SDS011;4593;53.652;10.168;2023-12-07T05:59:50;29.10;;;14.13;;
9115;SDS011;4593;53.652;10.168;2023-12-07T06:02:16;32.20;;;15.97;;
9115;SDS011;4593;53.652;10.168;2023-12-07T06:04:41;28.90;;;15.00;;
9115;SDS011;4593;53.652;10.168;2023-12-07T06:07:07;35.73;;;16.00;;
9115;SDS011;4593;53.652;10.168;2023-12-07T06:09:32;28.87;;;14.50;;
9115;SDS011;4593;53.652;10.168;2023-12-07T06:11:59;33.47;;;14.20;;
9115;SDS011;4593;53.652;10.168;2023-12-07T06:14:24;38.00;;;17.00;;
9115;SDS011;4593;53.652;10.168;2023-12-07T06:16:50;35.87;;;13.00;;
9115;SDS011;4593;53.652;10.168;2023-12-07T06:19:16;24.63;;;12.13;;
9115;SDS011;4593;53.652;10.168;2023-12-07T06:21:42;28.97;;;13.83;;
9115;SDS011;4593;53.652;10.168;2023-12-07T06:24:09;33.33;;;13.73;;
9115;SDS011;4593;53.652;10.168;2023-12-07T06:26:35;31.20;;;14.17;;
9115;SDS011;4593;53.652;10.168;2023-12-07T06:29:01;38.90;;;15.60;;
9115;SDS011;4593;53.652;10.168;2023-12-07T06:31:27;25.90;;;15.17;;
9115;SDS011;4593;53.652;10.168;2023-12-07T06:33:52;24.33;;;13.87;;
9115;SDS011;4593;53.652;10.168;2023-12-07T06:36:22;35.67;;;15.43;;
9115;SDS011;4593;53.652;10.168;2023-12-07T06:38:49;29.13;;;14.63;;
9115;SDS011;4593;53.652;10.168;2023-12-07T06:41:15;31.73;;;14.50;;
9115;SDS011;4593;53.652;10.168;2023-12-07T06:43:43;26.50;;;13.50;;
9115;SDS011;4593;53.652;10.168;2023-12-07T06:46:11;41.00;;;15.93;;
9115;SDS011;4593;53.652;10.168;2023-12-07T06:48:37;36.77;;;14.67;;
9115;SDS011;4593;53.652;10.168;2023-12-07T06:51:03;33.80;;;14.63;;
9115;SDS011;4593;53.652;10.168;2023-12-07T06:53:29;43.27;;;15.87;;
9115;SDS011;4593;53.652;10.168;2023-12-07T06:55:56;33.63;;;14.43;;
9115;SDS011;4593;53.652;10.168;2023-12-07T06:58:22;35.13;;;14.87;;
9115;SDS011;4593;53.652;10.168;2023-12-07T07:00:48;28.83;;;13.10;;
9115;SDS011;4593;53.652;10.168;2023-12-07T07:03:14;36.50;;;14.83;;
9115;SDS011;4593;53.652;10.168;2023-12-07T07:05:40;31.40;;;14.93;;
9115;SDS011;4593;53.652;10.168;2023-12-07T07:08:06;36.97;;;15.07;;
9115;SDS011;4593;53.652;10.168;2023-12-07T07:10:35;33.33;;;13.53;;
9115;SDS011;4593;53.652;10.168;2023-12-07T07:13:01;37.23;;;15.80;;
9115;SDS011;4593;53.652;10.168;2023-12-07T07:15:29;34.07;;;16.67;;
9115;SDS011;4593;53.652;10.168;2023-12-07T07:17:58;30.33;;;14.07;;
9115;SDS011;4593;53.652;10.168;2023-12-07T07:20:24;32.13;;;13.70;;
9115;SDS011;4593;53.652;10.168;2023-12-07T07:22:50;34.13;;;16.00;;
9115;SDS011;4593;53.652;10.168;2023-12-07T07:25:16;39.67;;;13.43;;
9115;SDS011;4593;53.652;10.168;2023-12-07T07:27:44;29.67;;;12.77;;
9115;SDS011;4593;53.652;10.168;2023-12-07T07:30:12;32.63;;;13.37;;
9115;SDS011;4593;53.652;10.168;2023-12-07T07:32:38;36.60;;;13.83;;
9115;SDS011;4593;53.652;10.168;2023-12-07T07:35:04;27.33;;;13.47;;
9115;SDS011;4593;53.652;10.168;2023-12-07T07:37:30;28.27;;;13.77;;
9115;SDS011;4593;53.652;10.168;2023-12-07T07:39:56;34.37;;;13.00;;
9115;SDS011;4593;53.652;10.168;2023-12-07T07:42:21;29.97;;;13.80;;
9115;SDS011;4593;53.652;10.168;2023-12-07T07:44:47;34.37;;;14.83;;
9115;SDS011;4593;53.652;10.168;2023-12-07T07:47:13;39.27;;;14.10;;
9115;SDS011;4593;53.652;10.168;2023-12-07T07:49:38;26.10;;;12.93;;
9115;SDS011;4593;53.652;10.168;2023-12-07T07:52:04;36.83;;;14.10;;
9115;SDS011;4593;53.652;10.168;2023-12-07T07:54:30;36.23;;;14.67;;
9115;SDS011;4593;53.652;10.168;2023-12-07T07:56:56;28.40;;;13.17;;
9115;SDS011;4593;53.652;10.168;2023-12-07T07:59:22;36.10;;;14.33;;
9115;SDS011;4593;53.652;10.168;2023-12-07T08:01:47;32.53;;;15.37;;
9115;SDS011;4593;53.652;10.168;2023-12-07T08:04:13;30.67;;;15.40;;
9115;SDS011;4593;53.652;10.168;2023-12-07T08:06:40;28.83;;;12.97;;
9115;SDS011;4593;53.652;10.168;2023-12-07T08:09:07;33.07;;;13.17;;
9115;SDS011;4593;53.652;10.168;2023-12-07T08:11:34;26.70;;;11.83;;
9115;SDS011;4593;53.652;10.168;2023-12-07T08:14:00;25.53;;;13.23;;
9115;SDS011;4593;53.652;10.168;2023-12-07T08:16:25;29.60;;;15.43;;
9115;SDS011;4593;53.652;10.168;2023-12-07T08:18:52;30.57;;;13.17;;
9115;SDS011;4593;53.652;10.168;2023-12-07T08:21:21;32.93;;;12.27;;
9115;SDS011;4593;53.652;10.168;2023-12-07T08:23:48;26.80;;;13.20;;
9115;SDS011;4593;53.652;10.168;2023-12-07T08:26:14;34.03;;;14.27;;
9115;SDS011;4593;53.652;10.168;2023-12-07T08:28:40;34.80;;;13.57;;
9115;SDS011;4593;53.652;10.168;2023-12-07T08:31:06;29.93;;;13.73;;
9115;SDS011;4593;53.652;10.168;2023-12-07T08:33:32;24.50;;;14.20;;
9115;SDS011;4593;53.652;10.168;2023-12-07T08:36:01;25.87;;;12.93;;
9115;SDS011;4593;53.652;10.168;2023-12-07T08:38:27;28.30;;;15.03;;
9115;SDS011;4593;53.652;10.168;2023-12-07T08:40:53;33.23;;;14.30;;
9115;SDS011;4593;53.652;10.168;2023-12-07T08:43:22;26.03;;;13.77;;
9115;SDS011;4593;53.652;10.168;2023-12-07T08:45:50;38.50;;;13.90;;
9115;SDS011;4593;53.652;10.168;2023-12-07T08:48:19;35.13;;;14.40;;
9115;SDS011;4593;53.652;10.168;2023-12-07T08:50:45;28.13;;;12.63;;
9115;SDS011;4593;53.652;10.168;2023-12-07T08:53:11;27.03;;;12.90;;
9115;SDS011;4593;53.652;10.168;2023-12-07T08:55:37;28.03;;;11.90;;
9115;SDS011;4593;53.652;10.168;2023-12-07T08:58:03;30.60;;;13.07;;
9115;SDS011;4593;53.652;10.168;2023-12-07T09:00:34;36.20;;;15.80;;
9115;SDS011;4593;53.652;10.168;2023-12-07T09:03:00;28.67;;;15.40;;
9115;SDS011;4593;53.652;10.168;2023-12-07T09:05:27;25.70;;;12.73;;
9115;SDS011;4593;53.652;10.168;2023-12-07T09:07:52;29.33;;;14.43;;
9115;SDS011;4593;53.652;10.168;2023-12-07T09:10:18;27.43;;;13.80;;
9115;SDS011;4593;53.652;10.168;2023-12-07T09:12:44;25.60;;;13.37;;
9115;SDS011;4593;53.652;10.168;2023-12-07T09:15:10;28.87;;;14.97;;
9115;SDS011;4593;53.652;10.168;2023-12-07T09:17:37;26.37;;;14.20;;
9115;SDS011;4593;53.652;10.168;2023-12-07T09:20:04;28.00;;;15.30;;
9115;SDS011;4593;53.652;10.168;2023-12-07T09:22:31;29.23;;;15.43;;
9115;SDS011;4593;53.652;10.168;2023-12-07T09:24:57;31.30;;;15.57;;
9115;SDS011;4593;53.652;10.168;2023-12-07T09:27:23;31.53;;;14.87;;
9115;SDS011;4593;53.652;10.168;2023-12-07T09:29:49;34.07;;;13.33;;
9115;SDS011;4593;53.652;10.168;2023-12-07T09:32:16;37.30;;;16.80;;
9115;SDS011;4593;53.652;10.168;2023-12-07T09:34:42;29.20;;;13.73;;
9115;SDS011;4593;53.652;10.168;2023-12-07T09:37:07;34.80;;;16.07;;
9115;SDS011;4593;53.652;10.168;2023-12-07T09:39:34;31.17;;;15.27;;
9115;SDS011;4593;53.652;10.168;2023-12-07T09:42:00;41.00;;;15.20;;
9115;SDS011;4593;53.652;10.168;2023-12-07T09:44:26;32.67;;;14.93;;
9115;SDS011;4593;53.652;10.168;2023-12-07T09:46:52;34.97;;;16.40;;
9115;SDS011;4593;53.652;10.168;2023-12-07T09:49:18;28.50;;;13.70;;
9115;SDS011;4593;53.652;10.168;2023-12-07T09:51:44;39.10;;;15.30;;
9115;SDS011;4593;53.652;10.168;2023-12-07T09:54:11;33.93;;;16.70;;
9115;SDS011;4593;53.652;10.168;2023-12-07T09:56:37;37.03;;;18.20;;
9115;SDS011;4593;53.652;10.168;2023-12-07T09:59:03;37.97;;;17.17;;
9115;SDS011;4593;53.652;10.168;2023-12-07T10:01:29;36.47;;;16.03;;
9115;SDS011;4593;53.652;10.168;2023-12-07T10:06:51;40.87;;;17.10;;
9115;SDS011;4593;53.652;10.168;2023-12-07T10:09:17;34.10;;;16.43;;
9115;SDS011;4593;53.652;10.168;2023-12-07T10:11:46;27.93;;;15.43;;
9115;SDS011;4593;53.652;10.168;2023-12-07T10:14:13;28.77;;;14.73;;
9115;SDS011;4593;53.652;10.168;2023-12-07T10:16:41;35.87;;;15.10;;
9115;SDS011;4593;53.652;10.168;2023-12-07T10:19:18;37.50;;;15.80;;
9115;SDS011;4593;53.652;10.168;2023-12-07T10:21:47;35.37;;;15.80;;
9115;SDS011;4593;53.652;10.168;2023-12-07T10:24:13;38.30;;;17.93;;
9115;SDS011;4593;53.652;10.168;2023-12-07T10:26:41;38.40;;;17.73;;
9115;SDS011;4593;53.652;10.168;2023-12-07T10:29:09;48.57;;;17.70;;
9115;SDS011;4593;53.652;10.168;2023-12-07T10:31:35;44.67;;;18.63;;
9115;SDS011;4593;53.652;10.168;2023-12-07T10:34:02;44.93;;;19.63;;
9115;SDS011;4593;53.652;10.168;2023-12-07T10:36:29;46.83;;;19.77;;
9115;SDS011;4593;53.652;10.168;2023-12-07T10:38:55;38.20;;;18.07;;
9115;SDS011;4593;53.652;10.168;2023-12-07T10:41:21;37.80;;;17.20;;
9115;SDS011;4593;53.652;10.168;2023-12-07T10:43:49;35.50;;;17.30;;
9115;SDS011;4593;53.652;10.168;2023-12-07T10:46:24;43.57;;;17.03;;
9115;SDS011;4593;53.652;10.168;2023-12-07T10:49:00;36.93;;;18.07;;
9115;SDS011;4593;53.652;10.168;2023-12-07T10:51:30;37.20;;;14.67;;
9115;SDS011;4593;53.652;10.168;2023-12-07T10:54:02;39.10;;;17.63;;
9115;SDS011;4593;53.652;10.168;2023-12-07T10:56:39;37.13;;;18.10;;
9115;SDS011;4593;53.652;10.168;2023-12-07T10:59:09;47.93;;;17.70;;
9115;SDS011;4593;53.652;10.168;2023-12-07T11:01:38;40.33;;;17.93;;
9115;SDS011;4593;53.652;10.168;2023-12-07T11:04:05;43.30;;;18.50;;
9115;SDS011;4593;53.652;10.168;2023-12-07T11:06:31;42.93;;;16.73;;
9115;SDS011;4593;53.652;10.168;2023-12-07T11:09:01;36.50;;;17.70;;
9115;SDS011;4593;53.652;10.168;2023-12-07T11:14:10;36.00;;;17.10;;
9115;SDS011;4593;53.652;10.168;2023-12-07T11:16:40;34.57;;;17.70;;
9115;SDS011;4593;53.652;10.168;2023-12-07T11:21:55;37.97;;;16.77;;
9115;SDS011;4593;53.652;10.168;2023-12-07T11:24:23;42.17;;;17.40;;
9115;SDS011;4593;53.652;10.168;2023-12-07T11:26:49;38.03;;;17.00;;
9115;SDS011;4593;53.652;10.168;2023-12-07T11:29:21;44.00;;;17.93;;
9115;SDS011;4593;53.652;10.168;2023-12-07T11:31:50;37.63;;;17.97;;
9115;SDS011;4593;53.652;10.168;2023-12-07T11:34:35;36.03;;;17.83;;
9115;SDS011;4593;53.652;10.168;2023-12-07T11:37:02;41.77;;;20.10;;
9115;SDS011;4593;53.652;10.168;2023-12-07T11:39:29;40.03;;;19.37;;
9115;SDS011;4593;53.652;10.168;2023-12-07T11:42:05;42.40;;;19.27;;
9115;SDS011;4593;53.652;10.168;2023-12-07T11:44:41;41.53;;;19.20;;
9115;SDS011;4593;53.652;10.168;2023-12-07T11:47:09;40.53;;;18.93;;
9115;SDS011;4593;53.652;10.168;2023-12-07T11:49:41;41.97;;;19.60;;
9115;SDS011;4593;53.652;10.168;2023-12-07T11:52:14;40.37;;;20.93;;
9115;SDS011;4593;53.652;10.168;2023-12-07T11:54:42;35.90;;;17.03;;
9115;SDS011;4593;53.652;10.168;2023-12-07T11:57:13;38.73;;;17.70;;
9115;SDS011;4593;53.652;10.168;2023-12-07T11:59:39;34.20;;;18.07;;
9115;SDS011;4593;53.652;10.168;2023-12-07T12:02:05;49.10;;;21.20;;
9115;SDS011;4593;53.652;10.168;2023-12-07T12:04:30;37.43;;;16.60;;
9115;SDS011;4593;53.652;10.168;2023-12-07T12:06:56;39.83;;;20.43;;
9115;SDS011;4593;53.652;10.168;2023-12-07T12:09:24;45.20;;;20.83;;
9115;SDS011;4593;53.652;10.168;2023-12-07T12:11:50;41.93;;;19.53;;
9115;SDS011;4593;53.652;10.168;2023-12-07T12:14:16;38.90;;;17.60;;
9115;SDS011;4593;53.652;10.168;2023-12-07T12:16:42;44.30;;;18.57;;
9115;SDS011;4593;53.652;10.168;2023-12-07T12:19:09;44.20;;;20.30;;
9115;SDS011;4593;53.652;10.168;2023-12-07T12:21:38;37.83;;;19.03;;
9115;SDS011;4593;53.652;10.168;2023-12-07T12:24:04;47.20;;;20.80;;
9115;SDS011;4593;53.652;10.168;2023-12-07T12:26:31;51.27;;;21.67;;
9115;SDS011;4593;53.652;10.168;2023-12-07T12:28:59;45.10;;;19.43;;
9115;SDS011;4593;53.652;10.168;2023-12-07T12:31:25;40.20;;;19.53;;
9115;SDS011;4593;53.652;10.168;2023-12-07T12:33:51;39.67;;;18.50;;
9115;SDS011;4593;53.652;10.168;2023-12-07T12:36:16;41.00;;;18.40;;
9115;SDS011;4593;53.652;10.168;2023-12-07T12:38:48;44.00;;;18.63;;
9115;SDS011;4593;53.652;10.168;2023-12-07T12:41:18;42.70;;;19.13;;
9115;SDS011;4593;53.652;10.168;2023-12-07T12:43:44;40.57;;;20.73;;
9115;SDS011;4593;53.652;10.168;2023-12-07T12:46:10;45.60;;;19.57;;
9115;SDS011;4593;53.652;10.168;2023-12-07T12:48:36;43.53;;;18.80;;
9115;SDS011;4593;53.652;10.168;2023-12-07T12:51:14;39.07;;;17.60;;
9115;SDS011;4593;53.652;10.168;2023-12-07T12:53:46;45.50;;;17.70;;
9115;SDS011;4593;53.652;10.168;2023-12-07T12:56:13;38.97;;;18.37;;
9115;SDS011;4593;53.652;10.168;2023-12-07T12:58:43;43.67;;;19.63;;
9115;SDS011;4593;53.652;10.168;2023-12-07T13:01:09;45.20;;;18.60;;
9115;SDS011;4593;53.652;10.168;2023-12-07T13:03:35;42.73;;;20.57;;
9115;SDS011;4593;53.652;10.168;2023-12-07T13:06:01;38.67;;;20.30;;
9115;SDS011;4593;53.652;10.168;2023-12-07T13:08:26;40.10;;;17.93;;
9115;SDS011;4593;53.652;10.168;2023-12-07T13:10:52;39.67;;;18.80;;
9115;SDS011;4593;53.652;10.168;2023-12-07T13:13:18;42.50;;;19.23;;
9115;SDS011;4593;53.652;10.168;2023-12-07T13:15:44;40.60;;;17.47;;
9115;SDS011;4593;53.652;10.168;2023-12-07T13:18:09;41.60;;;18.97;;
9115;SDS011;4593;53.652;10.168;2023-12-07T13:20:35;45.63;;;20.20;;
9115;SDS011;4593;53.652;10.168;2023-12-07T13:23:01;40.50;;;19.30;;
9115;SDS011;4593;53.652;10.168;2023-12-07T13:25:27;47.80;;;17.77;;
9115;SDS011;4593;53.652;10.168;2023-12-07T13:27:52;47.67;;;21.03;;
9115;SDS011;4593;53.652;10.168;2023-12-07T13:30:18;40.60;;;18.83;;
9115;SDS011;4593;53.652;10.168;2023-12-07T13:32:43;43.27;;;18.23;;
9115;SDS011;4593;53.652;10.168;2023-12-07T13:35:09;53.63;;;18.83;;
9115;SDS011;4593;53.652;10.168;2023-12-07T13:37:35;44.57;;;20.93;;
9115;SDS011;4593;53.652;10.168;2023-12-07T13:40:01;40.80;;;19.13;;
9115;SDS011;4593;53.652;10.168;2023-12-07T13:42:30;46.33;;;18.30;;
9115;SDS011;4593;53.652;10.168;2023-12-07T13:44:56;46.53;;;20.23;;
9115;SDS011;4593;53.652;10.168;2023-12-07T13:47:24;46.20;;;19.27;;
9115;SDS011;4593;53.652;10.168;2023-12-07T13:50:01;39.97;;;18.67;;
9115;SDS011;4593;53.652;10.168;2023-12-07T13:52:28;39.20;;;18.13;;
9115;SDS011;4593;53.652;10.168;2023-12-07T13:54:54;47.03;;;18.07;;
9115;SDS011;4593;53.652;10.168;2023-12-07T13:57:21;38.23;;;15.83;;
9115;SDS011;4593;53.652;10.168;2023-12-07T13:59:50;29.07;;;15.90;;
9115;SDS011;4593;53.652;10.168;2023-12-07T14:02:16;40.27;;;17.97;;
9115;SDS011;4593;53.652;10.168;2023-12-07T14:04:43;37.97;;;18.63;;
9115;SDS011;4593;53.652;10.168;2023-12-07T14:07:09;35.17;;;16.27;;
9115;SDS011;4593;53.652;10.168;2023-12-07T14:09:43;38.90;;;16.83;;
9115;SDS011;4593;53.652;10.168;2023-12-07T14:12:11;45.03;;;19.80;;
9115;SDS011;4593;53.652;10.168;2023-12-07T14:14:39;38.50;;;18.27;;
9115;SDS011;4593;53.652;10.168;2023-12-07T14:17:09;39.33;;;15.87;;
9115;SDS011;4593;53.652;10.168;2023-12-07T14:19:35;44.93;;;18.70;;
9115;SDS011;4593;53.652;10.168;2023-12-07T14:22:02;41.30;;;18.27;;
9115;SDS011;4593;53.652;10.168;2023-12-07T14:24:28;32.03;;;17.00;;
9115;SDS011;4593;53.652;10.168;2023-12-07T14:26:56;42.37;;;19.30;;
9115;SDS011;4593;53.652;10.168;2023-12-07T14:29:22;36.73;;;17.93;;
9115;SDS011;4593;53.652;10.168;2023-12-07T14:31:50;48.17;;;19.03;;
9115;SDS011;4593;53.652;10.168;2023-12-07T14:34:16;38.27;;;16.47;;
9115;SDS011;4593;53.652;10.168;2023-12-07T14:36:42;38.70;;;15.20;;
9115;SDS011;4593;53.652;10.168;2023-12-07T14:39:09;41.20;;;17.67;;
9115;SDS011;4593;53.652;10.168;2023-12-07T14:41:50;41.57;;;17.87;;